createdAt,value
2023-03-15T00:01:37.741Z,13.40
2023-03-15T00:04:06.561Z,13.26
2023-03-15T00:06:35.469Z,13.28
2023-03-15T00:09:03.854Z,13.31
2023-03-15T00:11:33.515Z,12.94
2023-03-15T00:14:02.918Z,12.85
2023-03-15T00:16:32.927Z,12.03
2023-03-15T00:19:01.655Z,12.00
2023-03-15T00:21:29.968Z,11.97
2023-03-15T00:23:58.394Z,11.63
2023-03-15T00:26:26.734Z,11.88
2023-03-15T00:28:56.356Z,12.25
2023-03-15T00:31:26.346Z,11.66
2023-03-15T00:33:54.760Z,10.93
2023-03-15T00:36:24.567Z,11.27
2023-03-15T00:38:54.504Z,11.10
2023-03-15T00:41:23.226Z,10.83
2023-03-15T00:43:52.294Z,10.87
2023-03-15T00:46:21.933Z,10.62
2023-03-15T00:48:51.211Z,11.11
2023-03-15T00:51:21.803Z,10.85
2023-03-15T00:53:50.074Z,10.52
2023-03-15T00:56:19.938Z,11.34
2023-03-15T00:58:48.387Z,10.90
2023-03-15T01:01:19.096Z,11.45
2023-03-15T01:03:49.411Z,11.26
2023-03-15T01:06:19.681Z,11.14
2023-03-15T01:08:48.142Z,10.88
2023-03-15T01:11:19.093Z,10.88
2023-03-15T01:13:47.319Z,10.88
2023-03-15T01:16:15.948Z,10.80
2023-03-15T01:18:44.745Z,10.24
2023-03-15T01:21:15.797Z,10.81
2023-03-15T01:23:44.244Z,10.36
2023-03-15T01:26:14.636Z,10.29
2023-03-15T01:28:43.136Z,9.93
2023-03-15T01:31:16.955Z,10.43
2023-03-15T01:33:45.262Z,10.08
2023-03-15T01:36:15.146Z,9.93
2023-03-15T01:38:43.844Z,9.94
2023-03-15T01:41:12.712Z,9.72
2023-03-15T01:43:47.432Z,10.36
2023-03-15T01:46:29.793Z,10.14
2023-03-15T01:49:02.080Z,10.08
2023-03-15T01:51:36.385Z,10.35
2023-03-15T01:54:08.622Z,10.09
2023-03-15T01:56:39.307Z,10.00
2023-03-15T01:59:13.005Z,9.83
2023-03-15T02:01:45.490Z,9.65
2023-03-15T02:04:17.638Z,9.63
2023-03-15T02:06:50.537Z,9.88
2023-03-15T02:09:19.868Z,9.42
2023-03-15T02:11:48.707Z,9.12
2023-03-15T02:14:17.174Z,9.38
2023-03-15T02:16:45.491Z,9.41
2023-03-15T02:19:29.397Z,9.84
2023-03-15T02:22:04.162Z,9.63
2023-03-15T02:24:38.415Z,9.82
2023-03-15T02:27:07.297Z,9.53
2023-03-15T02:29:37.108Z,9.70
2023-03-15T02:32:05.746Z,9.73
2023-03-15T02:34:34.110Z,9.48
2023-03-15T02:37:02.390Z,9.74
2023-03-15T02:39:30.635Z,9.37
2023-03-15T02:42:00.132Z,9.48
2023-03-15T02:44:30.535Z,9.44
2023-03-15T02:47:02.785Z,9.47
2023-03-15T02:49:34.238Z,9.21
2023-03-15T02:52:02.505Z,9.00
2023-03-15T02:54:34.280Z,8.36
2023-03-15T02:57:03.089Z,8.90
2023-03-15T02:59:31.521Z,8.87
2023-03-15T03:02:01.196Z,8.41
2023-03-15T03:04:29.500Z,8.29
2023-03-15T03:06:57.783Z,7.68
2023-03-15T03:09:26.175Z,7.20
2023-03-15T03:11:54.557Z,7.58
2023-03-15T03:14:23.874Z,7.36
2023-03-15T03:16:52.253Z,7.37
2023-03-15T03:19:25.705Z,7.39
2023-03-15T03:21:54.247Z,7.49
2023-03-15T03:24:22.494Z,8.02
2023-03-15T03:26:50.828Z,8.48
2023-03-15T03:29:19.080Z,8.40
2023-03-15T03:31:47.303Z,7.60
2023-03-15T03:34:15.778Z,7.40
2023-03-15T03:36:45.453Z,7.53
2023-03-15T03:39:13.705Z,8.83
2023-03-15T03:41:41.975Z,8.53
2023-03-15T03:44:10.635Z,8.02
2023-03-15T03:46:38.880Z,7.56
2023-03-15T03:49:07.121Z,9.14
2023-03-15T03:51:35.329Z,9.25
2023-03-15T03:54:05.221Z,9.45
2023-03-15T03:56:33.518Z,8.80
2023-03-15T03:59:01.754Z,8.66
2023-03-15T04:01:30.000Z,8.70
2023-03-15T04:03:58.213Z,8.96
2023-03-15T04:06:26.460Z,8.97
2023-03-15T04:08:54.613Z,8.49
2023-03-15T04:11:26.800Z,8.65
2023-03-15T04:13:55.121Z,8.95
2023-03-15T04:16:24.687Z,8.98
2023-03-15T04:18:56.395Z,8.36
2023-03-15T04:21:24.772Z,8.53
2023-03-15T04:23:53.894Z,8.28
2023-03-15T04:26:22.108Z,7.95
2023-03-15T04:28:51.715Z,8.27
2023-03-15T04:31:19.976Z,8.52
2023-03-15T04:33:48.273Z,8.36
2023-03-15T04:36:19.002Z,8.22
2023-03-15T04:38:47.648Z,8.23
2023-03-15T04:41:16.230Z,8.70
2023-03-15T04:43:44.875Z,8.41
2023-03-15T04:46:14.548Z,8.80
2023-03-15T04:48:42.747Z,8.90
2023-03-15T04:51:11.080Z,9.21
2023-03-15T04:53:39.879Z,9.21
2023-03-15T04:56:08.443Z,9.34
2023-03-15T04:58:36.639Z,9.83
2023-03-15T05:01:05.148Z,9.38
2023-03-15T05:03:34.847Z,9.28
2023-03-15T05:06:08.035Z,9.20
2023-03-15T05:08:36.869Z,9.11
2023-03-15T05:11:06.055Z,8.90
2023-03-15T05:13:34.329Z,8.81
2023-03-15T05:16:03.241Z,9.16
2023-03-15T05:18:31.528Z,8.75
2023-03-15T05:21:01.307Z,8.79
2023-03-15T05:23:29.643Z,8.86
2023-03-15T05:25:58.043Z,8.91
2023-03-15T05:28:27.047Z,8.92
2023-03-15T05:30:55.368Z,8.76
2023-03-15T05:33:24.661Z,8.59
2023-03-15T05:35:56.323Z,8.66
2023-03-15T05:38:27.168Z,8.92
2023-03-15T05:40:55.721Z,8.54
2023-03-15T05:43:24.070Z,8.93
2023-03-15T05:45:52.642Z,8.69
2023-03-15T05:48:21.020Z,8.35
2023-03-15T05:50:49.308Z,8.60
2023-03-15T05:53:17.689Z,8.27
2023-03-15T05:55:47.305Z,8.66
2023-03-15T05:58:15.570Z,8.49
2023-03-15T06:00:43.834Z,8.74
2023-03-15T06:03:12.129Z,8.48
2023-03-15T06:05:40.477Z,8.30
2023-03-15T06:08:08.752Z,8.18
2023-03-15T06:10:37.657Z,8.01
2023-03-15T06:13:07.287Z,8.08
2023-03-15T06:15:35.546Z,7.87
2023-03-15T06:18:04.850Z,8.02
2023-03-15T06:20:33.257Z,8.02
2023-03-15T06:23:01.534Z,7.76
2023-03-15T06:25:30.520Z,8.36
2023-03-15T06:27:58.800Z,8.30
2023-03-15T06:30:28.622Z,8.77
2023-03-15T06:32:56.976Z,8.71
2023-03-15T06:35:25.269Z,8.38
2023-03-15T06:37:53.867Z,8.68
2023-03-15T06:40:22.208Z,8.66
2023-03-15T06:42:50.569Z,8.76
2023-03-15T06:45:19.702Z,8.79
2023-03-15T06:47:49.264Z,9.20
2023-03-15T06:50:18.122Z,9.26
2023-03-15T06:52:46.393Z,9.28
2023-03-15T06:55:18.151Z,8.93
2023-03-15T06:57:46.435Z,9.36
2023-03-15T07:00:17.132Z,9.46
2023-03-15T07:02:45.432Z,9.27
2023-03-15T07:05:15.188Z,9.75
2023-03-15T07:07:43.404Z,9.54
2023-03-15T07:10:12.476Z,10.14
2023-03-15T07:12:40.723Z,9.57
2023-03-15T07:15:10.021Z,9.94
2023-03-15T07:17:38.268Z,9.75
2023-03-15T07:20:07.219Z,9.88
2023-03-15T07:22:36.868Z,10.03
2023-03-15T07:25:07.387Z,10.01
2023-03-15T07:27:35.686Z,9.86
2023-03-15T07:30:04.150Z,10.20
2023-03-15T07:32:32.933Z,10.28
2023-03-15T07:35:01.285Z,10.11
2023-03-15T07:37:29.736Z,10.28
2023-03-15T07:40:00.949Z,9.95
2023-03-15T07:42:29.165Z,10.30
2023-03-15T07:44:57.405Z,10.51
2023-03-15T07:47:25.663Z,10.30
2023-03-15T07:49:53.885Z,9.99
2023-03-15T07:52:22.293Z,10.25
2023-03-15T07:54:50.582Z,9.90
2023-03-15T07:57:20.205Z,9.90
2023-03-15T07:59:48.417Z,10.39
2023-03-15T08:02:16.697Z,10.21
2023-03-15T08:04:44.945Z,9.59
2023-03-15T08:07:13.216Z,9.95
2023-03-15T08:09:41.430Z,9.67
2023-03-15T08:12:09.802Z,9.83
2023-03-15T08:14:39.416Z,10.16
2023-03-15T08:17:12.956Z,10.10
2023-03-15T08:19:41.181Z,10.67
2023-03-15T08:22:09.500Z,10.65
2023-03-15T08:24:38.006Z,10.52
2023-03-15T08:27:06.800Z,10.93
2023-03-15T08:29:35.040Z,10.29
2023-03-15T08:32:04.891Z,10.02
2023-03-15T08:34:35.193Z,10.59
2023-03-15T08:37:03.482Z,10.53
2023-03-15T08:39:31.718Z,10.92
2023-03-15T08:41:59.967Z,11.02
2023-03-15T08:44:28.179Z,11.55
2023-03-15T08:46:56.463Z,11.73
2023-03-15T08:49:26.315Z,11.62
2023-03-15T08:51:54.516Z,12.07
2023-03-15T08:54:23.605Z,11.92
2023-03-15T08:56:51.858Z,11.72
2023-03-15T08:59:31.365Z,11.33
2023-03-15T09:02:01.000Z,11.43
2023-03-15T09:04:31.159Z,11.78
2023-03-15T09:06:59.533Z,11.23
2023-03-15T09:09:28.242Z,11.33
2023-03-15T09:11:56.669Z,10.84
2023-03-15T09:14:24.920Z,11.28
2023-03-15T09:16:53.223Z,11.18
2023-03-15T09:19:21.536Z,11.28
2023-03-15T09:21:51.278Z,10.84
2023-03-15T09:24:19.612Z,11.12
2023-03-15T09:26:47.850Z,11.39
2023-03-15T09:29:16.136Z,11.91
2023-03-15T09:31:44.368Z,11.43
2023-03-15T09:34:13.051Z,11.34
2023-03-15T09:36:41.291Z,11.76
2023-03-15T09:39:11.217Z,11.82
2023-03-15T09:41:43.592Z,11.84
2023-03-15T09:44:33.585Z,11.87
2023-03-15T09:47:10.088Z,11.78
2023-03-15T09:49:43.037Z,11.44
2023-03-15T09:52:19.665Z,11.71
2023-03-15T09:54:52.545Z,12.37
2023-03-15T09:57:24.055Z,11.98
2023-03-15T09:59:54.111Z,11.65
2023-03-15T10:02:25.288Z,11.98
2023-03-15T10:04:57.190Z,12.63
2023-03-15T10:07:25.477Z,13.05
2023-03-15T10:09:58.504Z,13.34
2023-03-15T10:12:30.980Z,13.11
2023-03-15T10:15:07.343Z,11.94
2023-03-15T10:17:40.273Z,12.30
2023-03-15T10:20:12.650Z,12.55
2023-03-15T10:22:47.115Z,12.86
2023-03-15T10:25:19.660Z,12.78
2023-03-15T10:27:50.745Z,13.13
2023-03-15T10:30:21.563Z,13.06
2023-03-15T10:32:53.469Z,13.56
2023-03-15T10:35:22.614Z,14.39
2023-03-15T10:37:50.856Z,14.56
2023-03-15T10:40:40.160Z,15.06
2023-03-15T10:43:15.549Z,15.28
2023-03-15T10:45:44.110Z,14.43
2023-03-15T10:48:12.472Z,14.83
2023-03-15T10:50:40.997Z,14.51
2023-03-15T10:53:18.007Z,15.09
2023-03-15T10:55:47.752Z,14.85
2023-03-15T10:58:25.744Z,14.97
2023-03-15T11:00:56.574Z,14.97
2023-03-15T11:03:24.894Z,15.32
2023-03-15T11:05:54.339Z,14.66
2023-03-15T11:08:24.047Z,14.58
2023-03-15T11:10:59.353Z,14.38
2023-03-15T11:13:29.545Z,15.69
2023-03-15T11:16:05.271Z,15.11
2023-03-15T11:18:36.707Z,15.77
2023-03-15T11:21:08.136Z,16.78
2023-03-15T11:23:38.750Z,15.11
2023-03-15T11:26:12.282Z,14.66
2023-03-15T11:28:47.219Z,14.09
2023-03-15T11:31:15.573Z,14.21
2023-03-15T11:33:47.195Z,14.71
2023-03-15T11:36:18.332Z,14.27
2023-03-15T11:38:47.264Z,14.64
2023-03-15T11:41:29.067Z,14.32
2023-03-15T11:44:03.357Z,14.21
2023-03-15T11:46:34.520Z,13.72
2023-03-15T11:49:06.301Z,13.68
2023-03-15T11:51:36.686Z,14.07
2023-03-15T11:54:10.759Z,13.78
2023-03-15T11:56:58.227Z,13.52
2023-03-15T11:59:28.658Z,13.98
2023-03-15T12:01:59.752Z,13.74
2023-03-15T12:04:42.265Z,13.66
2023-03-15T12:07:38.579Z,13.84
2023-03-15T12:10:35.468Z,13.40
2023-03-15T12:13:19.477Z,13.35
2023-03-15T12:15:49.264Z,13.72
2023-03-15T12:18:20.570Z,13.96
2023-03-15T12:20:57.650Z,13.92
2023-03-15T12:23:36.953Z,13.72
2023-03-15T12:26:11.609Z,13.57
2023-03-15T12:28:45.033Z,14.00
2023-03-15T12:31:14.644Z,14.48
2023-03-15T12:33:48.593Z,14.11
2023-03-15T12:36:27.752Z,13.85
2023-03-15T12:39:01.832Z,14.47
2023-03-15T12:41:39.180Z,14.45
2023-03-15T12:44:24.243Z,14.94
2023-03-15T12:46:57.776Z,15.15
2023-03-15T12:49:41.206Z,14.57
2023-03-15T12:52:30.116Z,15.18
2023-03-15T12:55:05.120Z,15.49
2023-03-15T12:57:38.829Z,15.31
2023-03-15T13:00:15.255Z,15.69
2023-03-15T13:02:46.756Z,15.14
2023-03-15T13:05:21.735Z,15.08
2023-03-15T13:08:05.496Z,15.63
2023-03-15T13:10:56.471Z,15.77
2023-03-15T13:13:46.334Z,15.52
2023-03-15T13:16:25.922Z,15.15
2023-03-15T13:19:00.623Z,15.16
2023-03-15T13:21:33.164Z,14.77
2023-03-15T13:24:02.391Z,15.18
2023-03-15T13:26:37.873Z,14.88
2023-03-15T13:29:14.246Z,15.61
2023-03-15T13:31:44.783Z,15.17
2023-03-15T13:34:13.961Z,15.19
2023-03-15T13:36:46.106Z,15.57
2023-03-15T13:39:23.337Z,15.31
2023-03-15T13:41:57.471Z,15.05
2023-03-15T13:44:26.183Z,15.23
2023-03-15T13:46:56.180Z,15.57
2023-03-15T13:49:25.054Z,15.56
2023-03-15T13:51:54.565Z,16.07
2023-03-15T13:54:26.145Z,15.75
2023-03-15T13:56:58.964Z,16.65
2023-03-15T13:59:30.433Z,16.88
2023-03-15T14:02:02.527Z,15.82
2023-03-15T14:04:33.874Z,15.14
2023-03-15T14:07:14.207Z,14.95
2023-03-15T14:09:42.378Z,14.64
2023-03-15T14:12:19.314Z,15.00
2023-03-15T14:14:51.158Z,15.89
2023-03-15T14:17:27.096Z,14.99
2023-03-15T14:19:56.755Z,15.18
2023-03-15T14:22:25.724Z,14.18
2023-03-15T14:24:54.328Z,14.52
2023-03-15T14:27:25.830Z,14.90
2023-03-15T14:29:56.164Z,14.88
2023-03-15T14:32:29.025Z,15.00
2023-03-15T14:35:02.692Z,15.17
2023-03-15T14:37:33.899Z,14.94
2023-03-15T14:40:15.713Z,13.64
2023-03-15T14:42:44.147Z,13.22
2023-03-15T14:45:13.086Z,14.01
2023-03-15T14:47:55.470Z,12.94
2023-03-15T14:50:27.414Z,12.38
2023-03-15T14:52:55.813Z,12.77
2023-03-15T14:55:26.119Z,12.73
2023-03-15T14:57:54.349Z,12.44
2023-03-15T15:00:23.281Z,12.15
2023-03-15T15:02:54.766Z,11.70
2023-03-15T15:05:26.223Z,11.51
2023-03-15T15:07:57.754Z,10.47
2023-03-15T15:10:26.824Z,11.41
2023-03-15T15:13:05.693Z,10.49
2023-03-15T15:15:51.827Z,10.42
2023-03-15T15:18:25.356Z,11.30
2023-03-15T15:20:55.934Z,11.45
2023-03-15T15:23:27.605Z,11.30
2023-03-15T15:25:58.419Z,12.43
2023-03-15T15:28:35.170Z,13.28
2023-03-15T15:31:05.567Z,13.10
2023-03-15T15:33:35.295Z,13.28
2023-03-15T15:36:04.383Z,12.65
2023-03-15T15:38:38.428Z,13.60
2023-03-15T15:41:11.249Z,13.15
2023-03-15T15:43:39.482Z,12.55
2023-03-15T15:46:11.224Z,13.39
2023-03-15T15:48:42.020Z,13.36
2023-03-15T15:51:18.216Z,13.38
2023-03-15T15:53:46.603Z,13.52
2023-03-15T15:56:15.690Z,13.06
2023-03-15T15:58:44.936Z,12.90
2023-03-15T16:01:14.443Z,12.72
2023-03-15T16:03:44.355Z,12.39
2023-03-15T16:06:17.713Z,12.46
2023-03-15T16:08:46.657Z,12.45
2023-03-15T16:11:16.628Z,12.78
2023-03-15T16:13:46.268Z,11.93
2023-03-15T16:16:15.790Z,12.02
2023-03-15T16:18:45.646Z,11.81
2023-03-15T16:21:16.632Z,12.75
2023-03-15T16:23:46.710Z,11.81
2023-03-15T16:26:17.217Z,12.46
2023-03-15T16:28:46.416Z,12.38
2023-03-15T16:31:14.715Z,11.49
2023-03-15T16:33:43.888Z,11.25
2023-03-15T16:36:21.069Z,12.26
2023-03-15T16:38:49.783Z,12.26
2023-03-15T16:41:18.184Z,12.70
2023-03-15T16:46:32.150Z,12.86
2023-03-15T16:49:00.734Z,13.39
2023-03-15T16:51:30.424Z,13.10
2023-03-15T16:54:12.641Z,13.28
2023-03-15T16:56:45.264Z,13.10
2023-03-15T16:59:16.002Z,12.27
2023-03-15T17:01:45.343Z,12.84
2023-03-15T17:04:14.768Z,13.44
2023-03-15T17:06:45.905Z,13.57
2023-03-15T17:09:18.343Z,13.96
2023-03-15T17:11:48.821Z,13.80
2023-03-15T17:14:21.017Z,14.14
2023-03-15T17:16:49.237Z,13.78
2023-03-15T17:19:17.836Z,14.14
2023-03-15T17:21:47.968Z,14.30
2023-03-15T17:24:16.358Z,14.16
2023-03-15T17:26:44.702Z,14.08
2023-03-15T17:29:14.658Z,14.06
2023-03-15T17:31:44.465Z,14.18
2023-03-15T17:34:12.853Z,14.39
2023-03-15T17:36:41.138Z,14.51
2023-03-15T17:39:15.528Z,14.39
2023-03-15T17:41:46.929Z,14.41
2023-03-15T17:44:15.276Z,14.49
2023-03-15T17:46:43.556Z,14.49
2023-03-15T17:49:14.409Z,14.31
2023-03-15T17:51:42.618Z,14.41
2023-03-15T17:54:15.467Z,14.49
2023-03-15T17:56:43.714Z,14.51
2023-03-15T17:59:13.056Z,14.43
2023-03-15T18:01:43.442Z,14.41
2023-03-15T18:04:11.904Z,14.44
2023-03-15T18:06:40.681Z,14.45
2023-03-15T18:09:11.234Z,14.44
2023-03-15T18:11:42.401Z,14.51
2023-03-15T18:14:14.052Z,14.38
2023-03-15T18:16:42.612Z,14.25
2023-03-15T18:19:11.025Z,13.41
2023-03-15T18:21:39.316Z,13.15
2023-03-15T18:24:08.399Z,12.75
2023-03-15T18:26:36.677Z,13.32
2023-03-15T18:29:06.243Z,12.97
2023-03-15T18:31:35.088Z,12.98
2023-03-15T18:34:03.660Z,12.17
2023-03-15T18:36:32.038Z,12.87
2023-03-15T18:39:00.506Z,12.29
2023-03-15T18:41:28.747Z,12.64
2023-03-15T18:43:56.959Z,12.77
2023-03-15T18:46:27.109Z,12.03
2023-03-15T18:48:55.768Z,11.93
2023-03-15T18:51:26.204Z,11.91
2023-03-15T18:53:55.022Z,12.76
2023-03-15T18:56:24.326Z,12.57
2023-03-15T18:58:53.381Z,12.33
2023-03-15T19:01:23.743Z,12.36
2023-03-15T19:03:54.116Z,12.71
2023-03-15T19:06:23.074Z,12.48
2023-03-15T19:08:54.064Z,12.88
2023-03-15T19:11:23.996Z,12.92
2023-03-15T19:13:52.430Z,12.75
2023-03-15T19:16:21.065Z,12.85
2023-03-15T19:18:49.676Z,13.02
2023-03-15T19:21:19.683Z,13.06
2023-03-15T19:23:48.321Z,12.78
2023-03-15T19:26:16.600Z,12.77
2023-03-15T19:28:44.927Z,13.09
2023-03-15T19:31:13.250Z,12.71
2023-03-15T19:33:41.552Z,13.01
2023-03-15T19:36:10.383Z,13.32
2023-03-15T19:38:40.761Z,13.39
2023-03-15T19:41:12.534Z,13.46
2023-03-15T19:43:43.326Z,13.52
2023-03-15T19:46:13.783Z,13.61
2023-03-15T19:48:42.439Z,13.59
2023-03-15T19:51:10.657Z,13.43
2023-03-15T19:53:40.216Z,13.35
2023-03-15T19:56:09.882Z,13.39
2023-03-15T19:58:39.402Z,13.38
2023-03-15T20:01:07.772Z,12.97
2023-03-15T20:03:36.030Z,13.33
2023-03-15T20:06:08.572Z,12.79
2023-03-15T20:08:36.921Z,12.59
2023-03-15T20:11:07.731Z,12.97
2023-03-15T20:13:36.485Z,12.98
2023-03-15T20:16:05.815Z,12.16
2023-03-15T20:18:34.225Z,11.97
2023-03-15T20:21:02.468Z,11.96
2023-03-15T20:23:30.774Z,11.92
2023-03-15T20:26:09.724Z,12.25
2023-03-15T20:28:38.577Z,12.36
2023-03-15T20:31:08.599Z,12.63
2023-03-15T20:33:36.980Z,12.20
2023-03-15T20:36:05.816Z,12.22
2023-03-15T20:38:37.105Z,11.80
2023-03-15T20:41:07.882Z,11.76
2023-03-15T20:43:36.412Z,11.75
2023-03-15T20:46:04.844Z,11.71
2023-03-15T20:48:35.955Z,12.06
2023-03-15T20:51:05.105Z,11.89
2023-03-15T20:53:34.131Z,11.74
2023-03-15T20:56:03.203Z,12.04
2023-03-15T20:58:33.210Z,12.34
2023-03-15T21:01:06.540Z,12.29
2023-03-15T21:03:35.517Z,12.47
2023-03-15T21:06:05.149Z,12.34
2023-03-15T21:08:34.489Z,12.70
2023-03-15T21:11:02.891Z,12.18
2023-03-15T21:13:32.574Z,11.74
2023-03-15T21:16:04.054Z,12.40
2023-03-15T21:18:33.566Z,12.64
2023-03-15T21:21:03.312Z,12.77
2023-03-15T21:23:32.977Z,12.75
2023-03-15T21:26:03.295Z,12.65
2023-03-15T21:28:33.436Z,12.83
2023-03-15T21:31:01.872Z,12.64
2023-03-15T21:33:31.590Z,12.22
2023-03-15T21:36:00.675Z,12.27
2023-03-15T21:38:29.183Z,12.33
2023-03-15T21:40:59.424Z,12.35
2023-03-15T21:43:28.319Z,12.42
2023-03-15T21:46:00.064Z,12.27
2023-03-15T21:48:28.654Z,11.97
2023-03-15T21:50:57.475Z,12.18
2023-03-15T21:53:25.788Z,12.12
2023-03-15T21:55:57.716Z,12.04
2023-03-15T21:58:26.313Z,11.93
2023-03-15T22:00:59.775Z,11.99
2023-03-15T22:03:28.083Z,11.99
2023-03-15T22:05:56.338Z,12.02
2023-03-15T22:08:24.846Z,11.98
2023-03-15T22:10:54.158Z,11.97
2023-03-15T22:13:22.516Z,11.92
2023-03-15T22:15:51.772Z,11.88
2023-03-15T22:18:22.037Z,11.83
2023-03-15T22:20:51.244Z,11.75
2023-03-15T22:23:19.510Z,11.76
2023-03-15T22:25:47.694Z,11.63
2023-03-15T22:28:16.199Z,11.59
2023-03-15T22:30:47.827Z,11.60
2023-03-15T22:33:16.519Z,11.60
2023-03-15T22:35:46.254Z,11.54
2023-03-15T22:38:15.420Z,11.58
2023-03-15T22:40:43.751Z,11.51
2023-03-15T22:43:11.973Z,11.52
2023-03-15T22:45:40.877Z,11.44
2023-03-15T22:48:09.149Z,11.55
2023-03-15T22:50:37.474Z,11.53
2023-03-15T22:53:07.128Z,11.53
2023-03-15T22:55:35.400Z,11.56
2023-03-15T22:58:03.614Z,11.53
2023-03-15T23:00:31.861Z,11.51
2023-03-15T23:03:00.088Z,11.50
2023-03-15T23:05:28.288Z,11.47
2023-03-15T23:07:56.533Z,11.45
2023-03-15T23:10:26.389Z,11.43
2023-03-15T23:12:54.750Z,11.42
2023-03-15T23:15:23.140Z,11.43
2023-03-15T23:17:53.896Z,11.42
2023-03-15T23:20:23.330Z,11.40
2023-03-15T23:22:52.003Z,11.38
2023-03-15T23:25:22.204Z,11.35
2023-03-15T23:27:52.158Z,11.29
2023-03-15T23:30:20.387Z,11.21
2023-03-15T23:32:49.230Z,11.16
2023-03-15T23:35:17.650Z,11.08
2023-03-15T23:37:45.929Z,11.03
2023-03-15T23:40:15.862Z,10.94
2023-03-15T23:42:44.537Z,10.88
2023-03-15T23:45:15.623Z,10.81
2023-03-15T23:47:44.141Z,10.76
2023-03-15T23:50:13.669Z,10.64
2023-03-15T23:52:42.196Z,10.53
2023-03-15T23:55:11.472Z,10.50
2023-03-15T23:57:40.324Z,10.47
